createdAt,value
2023-05-22T00:00:16.754Z,11.80
2023-05-22T00:02:44.083Z,11.00
2023-05-22T00:05:16.312Z,11.10
2023-05-22T00:07:43.642Z,11.03
2023-05-22T00:10:10.937Z,11.23
2023-05-22T00:12:37.848Z,10.77
2023-05-22T00:15:05.152Z,11.23
2023-05-22T00:17:32.121Z,12.07
2023-05-22T00:20:08.301Z,11.07
2023-05-22T00:22:35.782Z,11.20
2023-05-22T00:25:06.655Z,11.27
2023-05-22T00:27:34.276Z,10.93
2023-05-22T00:30:01.448Z,10.83
2023-05-22T00:32:28.564Z,11.77
2023-05-22T00:34:55.557Z,12.40
2023-05-22T00:37:22.301Z,11.43
2023-05-22T00:39:49.421Z,11.60
2023-05-22T00:42:16.155Z,11.63
2023-05-22T00:44:42.989Z,12.03
2023-05-22T00:47:09.843Z,11.97
2023-05-22T00:49:36.853Z,11.47
2023-05-22T00:52:03.883Z,11.37
2023-05-22T00:54:31.711Z,11.93
2023-05-22T00:56:58.581Z,12.23
2023-05-22T00:59:25.478Z,12.57
2023-05-22T01:01:52.259Z,12.67
2023-05-22T01:04:19.210Z,12.33
2023-05-22T01:06:47.896Z,12.67
2023-05-22T01:09:15.120Z,11.97
2023-05-22T01:12:19.567Z,12.53
2023-05-22T01:15:04.467Z,12.13
2023-05-22T01:17:46.530Z,11.37
2023-05-22T01:20:26.043Z,11.60
2023-05-22T01:23:24.670Z,11.57
2023-05-22T01:25:58.080Z,12.13
2023-05-22T01:28:38.801Z,11.53
2023-05-22T01:31:08.420Z,12.27
2023-05-22T01:33:53.716Z,11.93
2023-05-22T01:36:26.328Z,11.90
2023-05-22T01:38:54.106Z,12.17
2023-05-22T01:41:21.749Z,12.53
2023-05-22T01:43:48.595Z,11.53
2023-05-22T01:46:15.619Z,11.33
2023-05-22T01:48:42.466Z,11.87
2023-05-22T01:51:21.431Z,11.20
2023-05-22T01:53:54.655Z,11.20
2023-05-22T01:56:31.036Z,11.00
2023-05-22T01:59:34.628Z,10.40
2023-05-22T02:02:05.763Z,11.10
2023-05-22T02:04:33.140Z,10.53
2023-05-22T02:07:01.383Z,9.80
2023-05-22T02:09:30.315Z,10.23
2023-05-22T02:11:59.007Z,10.53
2023-05-22T02:14:26.650Z,9.87
2023-05-22T02:16:53.688Z,10.83
2023-05-22T02:19:20.534Z,10.83
2023-05-22T02:21:47.299Z,10.83
2023-05-22T02:24:14.040Z,11.33
2023-05-22T02:26:40.809Z,10.97
2023-05-22T02:29:07.541Z,11.30
2023-05-22T02:31:34.416Z,12.00
2023-05-22T02:34:01.364Z,11.93
2023-05-22T02:36:28.153Z,12.20
2023-05-22T02:38:55.757Z,12.57
2023-05-22T02:41:22.906Z,13.57
2023-05-22T02:43:49.772Z,12.23
2023-05-22T02:46:16.515Z,12.73
2023-05-22T02:48:43.350Z,11.83
2023-05-22T02:51:10.100Z,12.03
2023-05-22T02:53:40.367Z,12.00
2023-05-22T02:56:12.189Z,11.90
2023-05-22T02:58:39.752Z,11.57
2023-05-22T03:01:06.895Z,11.30
2023-05-22T03:03:34.313Z,10.53
2023-05-22T03:06:02.017Z,11.03
2023-05-22T03:08:29.327Z,10.77
2023-05-22T03:10:57.362Z,11.53
2023-05-22T03:13:24.361Z,11.07
2023-05-22T03:15:51.500Z,11.17
2023-05-22T03:18:18.339Z,11.10
2023-05-22T03:20:45.058Z,11.30
2023-05-22T03:23:12.814Z,15.43
2023-05-22T03:25:39.742Z,12.00
2023-05-22T03:28:06.704Z,11.53
2023-05-22T03:30:33.886Z,11.23
2023-05-22T03:33:00.847Z,12.47
2023-05-22T03:35:27.593Z,12.30
2023-05-22T03:37:54.421Z,11.77
2023-05-22T03:40:21.259Z,11.97
2023-05-22T03:42:49.594Z,12.07
2023-05-22T03:45:16.575Z,12.17
2023-05-22T03:47:43.353Z,11.63
2023-05-22T03:50:10.625Z,11.47
2023-05-22T03:52:37.399Z,12.57
2023-05-22T03:55:04.628Z,12.90
2023-05-22T03:57:31.331Z,11.67
2023-05-22T04:00:03.040Z,12.60
2023-05-22T04:02:30.424Z,12.10
2023-05-22T04:04:57.440Z,12.77
2023-05-22T04:07:24.217Z,12.67
2023-05-22T04:09:51.039Z,13.43
2023-05-22T04:12:17.798Z,13.13
2023-05-22T04:14:44.549Z,13.53
2023-05-22T04:17:12.100Z,13.43
2023-05-22T04:19:38.803Z,13.50
2023-05-22T04:22:05.979Z,14.17
2023-05-22T04:24:33.219Z,13.80
2023-05-22T04:27:00.541Z,14.10
2023-05-22T04:29:28.755Z,15.00
2023-05-22T04:31:55.747Z,14.00
2023-05-22T04:34:22.562Z,14.60
2023-05-22T04:36:49.443Z,14.60
2023-05-22T04:39:16.288Z,14.23
2023-05-22T04:41:43.119Z,14.03
2023-05-22T04:44:09.921Z,14.67
2023-05-22T04:46:36.688Z,14.63
2023-05-22T04:49:03.604Z,15.23
2023-05-22T04:51:31.460Z,14.73
2023-05-22T04:53:58.766Z,14.33
2023-05-22T04:56:35.326Z,15.73
2023-05-22T04:59:04.940Z,14.60
2023-05-22T05:01:33.312Z,15.20
2023-05-22T05:04:00.934Z,14.83
2023-05-22T05:06:27.915Z,15.50
2023-05-22T05:08:55.157Z,15.73
2023-05-22T05:11:21.884Z,16.20
2023-05-22T05:13:48.636Z,17.30
2023-05-22T05:16:15.355Z,17.53
2023-05-22T05:18:42.097Z,16.90
2023-05-22T05:21:09.241Z,16.93
2023-05-22T05:23:36.493Z,16.93
2023-05-22T05:26:03.327Z,17.70
2023-05-22T05:28:30.090Z,18.30
2023-05-22T05:30:58.116Z,19.43
2023-05-22T05:33:24.977Z,19.37
2023-05-22T05:35:52.917Z,18.13
2023-05-22T05:38:19.644Z,18.97
2023-05-22T05:40:47.162Z,19.13
2023-05-22T05:43:15.430Z,19.37
2023-05-22T05:45:43.036Z,20.07
2023-05-22T05:48:10.091Z,19.77
2023-05-22T05:50:37.186Z,20.33
2023-05-22T05:53:04.177Z,19.33
2023-05-22T05:55:33.281Z,20.50
2023-05-22T05:58:01.168Z,21.03
2023-05-22T06:00:28.081Z,21.53
2023-05-22T06:02:55.334Z,22.27
2023-05-22T06:05:22.699Z,21.23
2023-05-22T06:07:49.921Z,19.53
2023-05-22T06:10:16.790Z,19.97
2023-05-22T06:12:43.673Z,20.17
2023-05-22T06:15:11.231Z,20.90
2023-05-22T06:17:38.030Z,19.80
2023-05-22T06:20:07.628Z,20.10
2023-05-22T06:22:34.388Z,19.43
2023-05-22T06:25:01.527Z,19.63
2023-05-22T06:27:28.345Z,19.37
2023-05-22T06:29:56.412Z,20.37
2023-05-22T06:32:23.444Z,20.97
2023-05-22T06:34:50.267Z,20.37
2023-05-22T06:37:17.152Z,20.97
2023-05-22T06:39:43.929Z,22.73
2023-05-22T06:42:10.752Z,20.63
2023-05-22T06:44:37.551Z,21.30
2023-05-22T06:47:04.527Z,20.17
2023-05-22T06:49:31.303Z,20.90
2023-05-22T06:51:58.041Z,21.03
2023-05-22T06:54:28.697Z,24.63
2023-05-22T06:56:56.636Z,22.57
2023-05-22T06:59:23.431Z,22.93
2023-05-22T07:01:50.353Z,21.67
2023-05-22T07:04:17.492Z,22.87
2023-05-22T07:06:45.900Z,21.97
2023-05-22T07:09:14.165Z,21.10
2023-05-22T07:11:44.032Z,22.53
2023-05-22T07:14:12.811Z,21.93
2023-05-22T07:16:40.630Z,22.43
2023-05-22T07:19:09.087Z,23.53
2023-05-22T07:21:36.444Z,21.37
2023-05-22T07:24:08.378Z,23.83
2023-05-22T07:26:36.357Z,24.10
2023-05-22T07:29:04.008Z,26.20
2023-05-22T07:31:34.815Z,25.93
2023-05-22T07:34:01.736Z,25.77
2023-05-22T07:36:28.477Z,25.87
2023-05-22T07:38:55.318Z,27.97
2023-05-22T07:41:22.929Z,27.10
2023-05-22T07:43:49.977Z,28.47
2023-05-22T07:46:16.899Z,28.53
2023-05-22T07:48:44.061Z,28.40
2023-05-22T07:51:10.879Z,28.03
2023-05-22T07:53:37.748Z,28.00
2023-05-22T07:56:04.603Z,27.07
2023-05-22T07:58:31.620Z,27.30
2023-05-22T08:00:58.614Z,27.37
2023-05-22T08:03:25.501Z,26.00
2023-05-22T08:05:52.557Z,27.03
2023-05-22T08:08:19.314Z,30.73
2023-05-22T08:11:01.735Z,30.80
2023-05-22T08:13:29.722Z,29.80
2023-05-22T08:16:00.357Z,29.43
2023-05-22T08:18:29.632Z,28.93
2023-05-22T08:20:56.860Z,28.03
2023-05-22T08:23:23.677Z,28.97
2023-05-22T08:25:50.551Z,29.93
2023-05-22T08:28:17.382Z,29.33
2023-05-22T08:30:44.304Z,30.13
2023-05-22T08:33:12.514Z,30.83
2023-05-22T08:35:39.437Z,28.77
2023-05-22T08:38:06.272Z,29.93
2023-05-22T08:40:41.308Z,29.03
2023-05-22T08:43:09.597Z,29.33
2023-05-22T08:45:36.441Z,29.43
2023-05-22T08:48:06.454Z,30.30
2023-05-22T08:50:34.963Z,30.77
2023-05-22T08:53:07.107Z,31.30
2023-05-22T08:55:34.683Z,32.23
2023-05-22T08:58:01.589Z,29.87
2023-05-22T09:00:29.887Z,29.83
2023-05-22T09:02:57.862Z,28.37
2023-05-22T09:05:27.003Z,29.83
2023-05-22T09:07:56.545Z,27.70
2023-05-22T09:10:25.854Z,28.33
2023-05-22T09:13:04.757Z,27.87
2023-05-22T09:15:32.639Z,29.03
2023-05-22T09:18:00.215Z,27.43
2023-05-22T09:20:27.225Z,27.07
2023-05-22T09:22:54.098Z,27.93
2023-05-22T09:25:21.822Z,26.80
2023-05-22T09:27:49.047Z,26.80
2023-05-22T09:30:19.847Z,25.10
2023-05-22T09:32:48.938Z,25.43
2023-05-22T09:35:16.788Z,26.83
2023-05-22T09:37:43.552Z,26.27
2023-05-22T09:40:14.458Z,27.90
2023-05-22T09:42:45.025Z,25.80
2023-05-22T09:45:11.919Z,27.27
2023-05-22T09:47:39.178Z,29.20
2023-05-22T09:50:07.639Z,28.30
2023-05-22T09:52:35.923Z,26.77
2023-05-22T09:55:07.379Z,27.30
2023-05-22T09:57:45.660Z,27.43
2023-05-22T10:00:16.272Z,27.40
2023-05-22T10:02:48.256Z,29.70
2023-05-22T10:05:24.513Z,28.53
2023-05-22T10:07:54.756Z,29.33
2023-05-22T10:10:23.474Z,29.53
2023-05-22T10:13:04.790Z,28.63
2023-05-22T10:15:32.375Z,30.73
2023-05-22T10:17:59.630Z,28.47
2023-05-22T10:20:27.975Z,27.83
2023-05-22T10:22:55.395Z,28.67
2023-05-22T10:25:22.561Z,30.17
2023-05-22T10:27:52.692Z,27.80
2023-05-22T10:30:22.472Z,29.50
2023-05-22T10:33:06.102Z,28.20
2023-05-22T10:35:40.238Z,25.43
2023-05-22T10:38:28.289Z,27.10
2023-05-22T10:40:55.465Z,28.47
2023-05-22T10:43:22.965Z,28.97
2023-05-22T10:45:49.823Z,28.17
2023-05-22T10:48:21.855Z,26.87
2023-05-22T10:50:53.191Z,28.13
2023-05-22T10:53:32.582Z,26.00
2023-05-22T10:56:02.905Z,25.93
2023-05-22T10:58:37.512Z,27.07
2023-05-22T11:01:17.494Z,27.30
2023-05-22T11:04:16.218Z,26.83
2023-05-22T11:07:15.707Z,27.80
2023-05-22T11:09:43.545Z,26.00
2023-05-22T11:12:16.783Z,26.07
2023-05-22T11:14:47.933Z,26.10
2023-05-22T11:17:18.975Z,29.20
2023-05-22T11:19:49.876Z,27.47
2023-05-22T11:22:17.982Z,26.93
2023-05-22T11:24:44.985Z,27.00
2023-05-22T11:27:11.798Z,27.40
2023-05-22T11:29:41.829Z,28.30
2023-05-22T11:32:09.401Z,28.53
2023-05-22T11:34:37.270Z,28.07
2023-05-22T11:37:04.127Z,29.27
2023-05-22T11:39:32.926Z,29.33
2023-05-22T11:41:59.702Z,30.52
2023-05-22T11:44:27.998Z,29.42
2023-05-22T11:46:54.878Z,28.55
2023-05-22T11:49:25.700Z,30.95
2023-05-22T11:51:52.589Z,30.38
2023-05-22T11:54:19.614Z,31.33
2023-05-22T11:56:46.741Z,30.27
2023-05-22T11:59:13.574Z,31.63
2023-05-22T12:01:40.401Z,29.33
2023-05-22T12:04:07.286Z,30.55
2023-05-22T12:06:34.361Z,29.30
2023-05-22T12:09:01.728Z,37.95
2023-05-22T12:11:28.617Z,31.25
2023-05-22T12:14:02.770Z,32.13
2023-05-22T12:16:34.657Z,30.90
2023-05-22T12:19:05.992Z,29.63
2023-05-22T12:21:32.926Z,28.38
2023-05-22T12:24:04.176Z,29.13
2023-05-22T12:26:31.800Z,30.40
2023-05-22T12:28:59.505Z,30.35
2023-05-22T12:31:26.652Z,29.35
2023-05-22T12:33:57.094Z,27.25
2023-05-22T12:36:39.957Z,27.02
2023-05-22T12:39:11.273Z,27.83
2023-05-22T12:41:41.240Z,28.00
2023-05-22T12:44:08.362Z,27.02
2023-05-22T12:46:35.320Z,26.88
2023-05-22T12:49:02.467Z,28.08
2023-05-22T12:51:31.387Z,27.90
2023-05-22T12:53:59.283Z,27.02
2023-05-22T12:56:26.303Z,28.02
2023-05-22T12:58:53.236Z,26.42
2023-05-22T13:01:20.257Z,26.48
2023-05-22T13:03:47.053Z,25.70
2023-05-22T13:06:13.955Z,25.92
2023-05-22T13:08:40.700Z,25.52
2023-05-22T13:11:07.439Z,24.35
2023-05-22T13:13:34.235Z,25.30
2023-05-22T13:16:01.211Z,24.27
2023-05-22T13:18:27.995Z,24.52
2023-05-22T13:20:56.592Z,24.40
2023-05-22T13:23:23.651Z,25.55
2023-05-22T13:25:50.553Z,24.90
2023-05-22T13:28:17.333Z,23.55
2023-05-22T13:30:44.088Z,23.60
2023-05-22T13:33:15.900Z,22.13
2023-05-22T13:35:45.565Z,22.05
2023-05-22T13:38:12.427Z,21.25
2023-05-22T13:40:39.554Z,22.05
2023-05-22T13:43:06.387Z,21.83
2023-05-22T13:45:33.344Z,21.67
2023-05-22T13:48:00.258Z,21.40
2023-05-22T13:50:27.085Z,19.63
2023-05-22T13:52:53.943Z,19.65
2023-05-22T13:55:21.194Z,19.67
2023-05-22T13:57:47.936Z,20.23
2023-05-22T14:00:15.261Z,19.67
2023-05-22T14:02:42.110Z,19.48
2023-05-22T14:05:09.160Z,20.45
2023-05-22T14:07:36.001Z,22.52
2023-05-22T14:10:02.824Z,22.13
2023-05-22T14:12:29.746Z,23.38
2023-05-22T14:14:56.588Z,23.95
2023-05-22T14:17:23.354Z,21.63
2023-05-22T14:19:50.112Z,19.98
2023-05-22T14:22:17.012Z,26.90
2023-05-22T14:24:43.797Z,25.92
2023-05-22T14:27:10.526Z,24.30
2023-05-22T14:29:37.294Z,24.25
2023-05-22T14:32:05.402Z,26.08
2023-05-22T14:34:32.370Z,27.83
2023-05-22T14:36:59.193Z,28.45
2023-05-22T14:39:26.276Z,27.25
2023-05-22T14:41:54.018Z,26.70
2023-05-22T14:44:22.780Z,26.83
2023-05-22T14:46:51.186Z,33.67
2023-05-22T14:49:18.187Z,29.08
2023-05-22T14:51:48.274Z,30.40
2023-05-22T14:54:19.297Z,33.78
2023-05-22T14:56:46.559Z,30.05
2023-05-22T14:59:14.375Z,30.48
2023-05-22T15:01:41.327Z,32.58
2023-05-22T15:04:09.197Z,30.42
2023-05-22T15:06:36.454Z,33.63
2023-05-22T15:09:03.434Z,29.23
2023-05-22T15:11:30.233Z,30.55
2023-05-22T15:13:57.011Z,28.73
2023-05-22T15:16:25.827Z,28.20
2023-05-22T15:18:53.680Z,28.23
2023-05-22T15:21:21.151Z,31.27
2023-05-22T15:23:48.424Z,30.83
2023-05-22T15:26:16.337Z,32.75
2023-05-22T15:28:43.149Z,32.30
2023-05-22T15:31:12.187Z,32.75
2023-05-22T15:33:39.891Z,31.38
2023-05-22T15:36:06.993Z,31.35
2023-05-22T15:38:34.008Z,32.03
2023-05-22T15:41:10.633Z,30.27
2023-05-22T15:43:42.923Z,28.85
2023-05-22T15:46:12.660Z,26.65
2023-05-22T15:48:42.556Z,28.02
2023-05-22T15:51:09.934Z,26.77
2023-05-22T15:53:36.984Z,26.48
2023-05-22T15:56:04.125Z,25.77
2023-05-22T15:58:31.224Z,24.13
2023-05-22T16:00:58.252Z,22.92
2023-05-22T16:03:25.869Z,23.60
2023-05-22T16:05:55.326Z,21.55
2023-05-22T16:08:22.494Z,20.95
2023-05-22T16:10:49.502Z,23.35
2023-05-22T16:13:20.728Z,21.02
2023-05-22T16:16:06.513Z,20.80
2023-05-22T16:18:33.910Z,19.40
2023-05-22T16:21:09.146Z,19.95
2023-05-22T16:23:38.177Z,21.10
2023-05-22T16:26:06.824Z,19.08
2023-05-22T16:28:39.176Z,18.45
2023-05-22T16:31:08.176Z,16.23
2023-05-22T16:33:36.553Z,16.27
2023-05-22T16:36:04.194Z,11.43
2023-05-22T16:38:30.936Z,9.95
2023-05-22T16:40:58.317Z,9.65
2023-05-22T16:43:25.145Z,9.30
2023-05-22T16:45:51.956Z,9.90
2023-05-22T16:48:18.817Z,10.23
2023-05-22T16:50:46.886Z,10.80
2023-05-22T16:53:14.004Z,10.43
2023-05-22T16:55:41.065Z,10.02
2023-05-22T16:58:09.351Z,9.73
2023-05-22T17:00:36.664Z,9.33
2023-05-22T17:03:04.030Z,9.60
2023-05-22T17:05:31.018Z,9.40
2023-05-22T17:07:57.810Z,8.75
2023-05-22T17:10:26.875Z,9.60
2023-05-22T17:12:56.764Z,9.63
2023-05-22T17:15:26.076Z,9.23
2023-05-22T17:17:52.929Z,9.63
2023-05-22T17:20:22.319Z,9.60
2023-05-22T17:22:49.369Z,9.60
2023-05-22T17:25:16.498Z,9.70
2023-05-22T17:27:50.321Z,9.53
2023-05-22T17:30:17.528Z,10.20
2023-05-22T17:32:45.378Z,10.57
2023-05-22T17:35:12.289Z,10.87
2023-05-22T17:37:39.085Z,10.50
2023-05-22T17:40:06.784Z,10.60
2023-05-22T17:42:33.553Z,10.47
2023-05-22T17:45:00.329Z,10.37
2023-05-22T17:47:27.126Z,10.97
2023-05-22T17:49:54.033Z,10.77
2023-05-22T17:52:20.861Z,11.00
2023-05-22T17:54:47.599Z,11.60
2023-05-22T17:57:14.466Z,10.67
2023-05-22T17:59:41.235Z,12.10
2023-05-22T18:02:09.298Z,11.63
2023-05-22T18:04:36.636Z,11.47
2023-05-22T18:07:04.075Z,11.57
2023-05-22T18:09:31.136Z,11.43
2023-05-22T18:11:59.120Z,11.50
2023-05-22T18:14:26.271Z,11.30
2023-05-22T18:17:00.373Z,12.53
2023-05-22T18:19:27.375Z,12.13
2023-05-22T18:21:54.303Z,12.83
2023-05-22T18:24:25.197Z,11.83
2023-05-22T18:26:52.219Z,12.17
2023-05-22T18:29:19.203Z,11.90
2023-05-22T18:31:46.506Z,11.40
2023-05-22T18:34:13.922Z,11.47
2023-05-22T18:36:44.135Z,12.38
2023-05-22T18:39:11.647Z,11.97
2023-05-22T18:41:39.013Z,11.80
2023-05-22T18:44:05.866Z,12.07
2023-05-22T18:46:32.822Z,12.67
2023-05-22T18:48:59.814Z,12.67
2023-05-22T18:51:26.924Z,12.97
2023-05-22T18:53:53.953Z,11.57
2023-05-22T18:56:20.727Z,11.50
2023-05-22T18:58:47.572Z,11.07
2023-05-22T19:01:14.377Z,10.10
2023-05-22T19:03:41.401Z,8.87
2023-05-22T19:06:08.473Z,8.53
2023-05-22T19:08:35.522Z,7.83
2023-05-22T19:11:02.400Z,7.63
2023-05-22T19:13:29.595Z,6.37
2023-05-22T19:15:57.518Z,6.07
2023-05-22T19:18:24.877Z,5.30
2023-05-22T19:20:51.695Z,4.83
2023-05-22T19:23:18.870Z,4.80
2023-05-22T19:25:46.058Z,4.53
2023-05-22T19:28:12.780Z,5.03
2023-05-22T19:30:40.022Z,4.47
2023-05-22T19:33:08.975Z,4.77
2023-05-22T19:35:36.027Z,4.30
2023-05-22T19:38:02.726Z,4.60
2023-05-22T19:40:29.512Z,4.50
2023-05-22T19:42:56.494Z,4.53
2023-05-22T19:45:26.110Z,4.40
2023-05-22T19:47:53.092Z,4.30
2023-05-22T19:50:19.929Z,4.87
2023-05-22T19:52:46.718Z,4.63
2023-05-22T19:55:13.479Z,4.30
2023-05-22T19:57:40.741Z,4.23
2023-05-22T20:00:11.165Z,4.20
2023-05-22T20:02:38.661Z,4.43
2023-05-22T20:05:09.807Z,4.70
2023-05-22T20:07:36.696Z,4.27
2023-05-22T20:10:06.946Z,4.30
2023-05-22T20:12:34.145Z,4.57
2023-05-22T20:15:02.933Z,4.50
2023-05-22T20:17:30.384Z,4.77
2023-05-22T20:20:00.764Z,4.40
2023-05-22T20:22:28.136Z,4.47
2023-05-22T20:24:54.916Z,4.60
2023-05-22T20:27:21.738Z,4.43
2023-05-22T20:29:51.432Z,4.40
2023-05-22T20:32:18.403Z,4.10
2023-05-22T20:34:46.732Z,5.00
2023-05-22T20:37:13.844Z,4.70
2023-05-22T20:39:43.765Z,4.80
2023-05-22T20:42:11.880Z,4.80
2023-05-22T20:44:39.429Z,4.50
2023-05-22T20:47:06.624Z,4.43
2023-05-22T20:49:34.983Z,5.23
2023-05-22T20:52:03.050Z,5.50
2023-05-22T20:54:34.751Z,5.50
2023-05-22T20:57:02.151Z,5.03
2023-05-22T20:59:29.310Z,5.30
2023-05-22T21:01:57.355Z,5.00
2023-05-22T21:04:24.718Z,5.60
2023-05-22T21:06:51.587Z,4.73
2023-05-22T21:09:18.458Z,5.63
2023-05-22T21:11:45.454Z,5.10
2023-05-22T21:14:12.336Z,5.10
2023-05-22T21:16:40.335Z,5.40
2023-05-22T21:19:07.697Z,5.30
2023-05-22T21:21:36.403Z,5.30
2023-05-22T21:24:03.585Z,5.40
2023-05-22T21:26:30.572Z,5.33
2023-05-22T21:28:57.592Z,4.83
2023-05-22T21:31:24.429Z,5.60
2023-05-22T21:33:51.865Z,5.80
2023-05-22T21:36:18.781Z,5.23
2023-05-22T21:38:45.970Z,4.77
2023-05-22T21:41:13.254Z,5.80
2023-05-22T21:43:40.001Z,5.50
2023-05-22T21:46:06.950Z,5.10
2023-05-22T21:48:34.619Z,5.23
2023-05-22T21:51:01.465Z,5.17
2023-05-22T21:53:28.210Z,5.57
2023-05-22T21:55:55.050Z,5.20
2023-05-22T21:58:22.121Z,5.47
2023-05-22T22:00:48.850Z,5.63
2023-05-22T22:03:16.165Z,5.60
2023-05-22T22:05:42.998Z,6.07
2023-05-22T22:08:09.983Z,5.73
2023-05-22T22:10:36.747Z,6.17
2023-05-22T22:13:03.580Z,5.97
2023-05-22T22:15:31.806Z,5.40
2023-05-22T22:18:02.394Z,5.97
2023-05-22T22:20:44.124Z,6.20
2023-05-22T22:23:11.413Z,6.07
2023-05-22T22:25:39.462Z,6.30
2023-05-22T22:28:07.556Z,6.20
2023-05-22T22:30:35.560Z,6.60
2023-05-22T22:33:02.625Z,7.37
2023-05-22T22:35:29.795Z,6.63
2023-05-22T22:37:56.973Z,6.23
2023-05-22T22:40:25.971Z,6.80
2023-05-22T22:42:53.749Z,6.73
2023-05-22T22:45:20.582Z,6.50
2023-05-22T22:47:48.440Z,6.77
2023-05-22T22:50:15.194Z,7.03
2023-05-22T22:52:45.683Z,7.67
2023-05-22T22:55:12.655Z,7.20
2023-05-22T22:57:39.507Z,6.53
2023-05-22T23:00:06.924Z,7.23
2023-05-22T23:02:33.727Z,6.77
2023-05-22T23:05:00.656Z,7.07
2023-05-22T23:07:28.278Z,7.70
2023-05-22T23:09:54.985Z,6.83
2023-05-22T23:12:21.786Z,6.97
2023-05-22T23:14:50.617Z,7.90
2023-05-22T23:17:17.448Z,7.47
2023-05-22T23:19:44.800Z,7.07
2023-05-22T23:22:11.539Z,6.60
2023-05-22T23:24:38.316Z,7.20
2023-05-22T23:27:05.516Z,7.43
2023-05-22T23:29:32.517Z,7.20
2023-05-22T23:31:59.517Z,6.90
2023-05-22T23:34:26.448Z,7.30
2023-05-22T23:36:53.244Z,6.77
2023-05-22T23:39:20.066Z,6.90
2023-05-22T23:41:46.813Z,6.47
2023-05-22T23:44:13.565Z,5.80
2023-05-22T23:46:41.469Z,6.50
2023-05-22T23:49:08.504Z,6.47
2023-05-22T23:51:35.197Z,5.70
2023-05-22T23:54:01.902Z,5.53
2023-05-22T23:56:28.675Z,4.43
2023-05-22T23:58:56.267Z,4.03
